createdAt,value
2022-11-16T00:00:15.029Z,0.00
2022-11-16T00:01:11.992Z,0.00
2022-11-16T00:02:11.417Z,0.00
2022-11-16T00:03:11.567Z,0.00
2022-11-16T00:04:11.258Z,0.00
2022-11-16T00:05:11.264Z,0.00
2022-11-16T00:06:12.258Z,0.00
2022-11-16T00:07:12.148Z,0.00
2022-11-16T00:08:11.542Z,0.00
2022-11-16T00:09:11.214Z,0.00
2022-11-16T00:10:14.004Z,0.00
2022-11-16T00:11:11.182Z,0.00
2022-11-16T00:12:11.174Z,0.00
2022-11-16T00:13:11.153Z,0.00
2022-11-16T00:14:11.191Z,0.00
2022-11-16T00:15:14.002Z,0.00
2022-11-16T00:16:11.146Z,0.00
2022-11-16T00:17:12.015Z,0.00
2022-11-16T00:18:11.097Z,0.00
2022-11-16T00:19:11.105Z,0.00
2022-11-16T00:20:11.106Z,0.00
2022-11-16T00:21:11.548Z,0.00
2022-11-16T00:22:12.035Z,0.00
2022-11-16T00:23:11.056Z,0.00
2022-11-16T00:24:11.042Z,0.00
2022-11-16T00:25:11.018Z,0.00
2022-11-16T00:26:14.011Z,0.00
2022-11-16T00:27:11.026Z,0.00
2022-11-16T00:28:11.001Z,0.00
2022-11-16T00:29:11.505Z,0.00
2022-11-16T00:30:10.973Z,0.00
2022-11-16T00:31:10.964Z,0.00
2022-11-16T00:32:11.054Z,0.00
2022-11-16T00:33:10.932Z,0.00
2022-11-16T00:34:13.513Z,0.00
2022-11-16T00:35:10.915Z,0.00
2022-11-16T00:36:10.902Z,0.00
2022-11-16T00:37:10.909Z,0.00
2022-11-16T00:38:10.912Z,0.00
2022-11-16T00:39:10.866Z,0.00
2022-11-16T00:40:10.887Z,0.00
2022-11-16T00:41:10.855Z,0.00
2022-11-16T00:42:10.854Z,0.00
2022-11-16T00:43:10.826Z,0.00
2022-11-16T00:44:11.875Z,0.00
2022-11-16T00:45:10.825Z,0.00
2022-11-16T00:46:10.794Z,0.00
2022-11-16T00:47:10.780Z,0.00
2022-11-16T00:48:10.803Z,0.00
2022-11-16T00:49:10.788Z,0.00
2022-11-16T00:50:10.759Z,0.00
2022-11-16T00:51:10.752Z,0.00
2022-11-16T00:52:10.731Z,0.00
2022-11-16T00:53:10.725Z,0.00
2022-11-16T00:54:10.723Z,0.00
2022-11-16T00:55:10.699Z,0.00
2022-11-16T00:56:11.507Z,0.00
2022-11-16T00:57:10.700Z,0.00
2022-11-16T00:58:10.716Z,0.00
2022-11-16T00:59:10.662Z,0.00
2022-11-16T01:00:10.688Z,0.00
2022-11-16T01:01:10.683Z,0.00
2022-11-16T01:02:10.628Z,0.00
2022-11-16T01:03:10.611Z,0.00
2022-11-16T01:04:10.609Z,0.00
2022-11-16T01:05:10.621Z,0.00
2022-11-16T01:06:10.596Z,0.00
2022-11-16T01:07:10.635Z,0.00
2022-11-16T01:08:10.559Z,0.00
2022-11-16T01:09:10.553Z,0.00
2022-11-16T01:10:10.542Z,0.00
2022-11-16T01:11:10.540Z,0.00
2022-11-16T01:12:10.518Z,0.00
2022-11-16T01:13:10.505Z,0.00
2022-11-16T01:14:11.009Z,0.00
2022-11-16T01:15:10.514Z,0.00
2022-11-16T01:16:10.477Z,0.00
2022-11-16T01:17:10.483Z,0.00
2022-11-16T01:18:10.470Z,0.00
2022-11-16T01:19:10.443Z,0.00
2022-11-16T01:20:10.434Z,0.00
2022-11-16T01:21:10.411Z,0.00
2022-11-16T01:22:10.447Z,0.00
2022-11-16T01:23:10.394Z,0.00
2022-11-16T01:24:11.021Z,0.00
2022-11-16T01:25:10.372Z,0.00
2022-11-16T01:26:10.368Z,0.00
2022-11-16T01:27:10.348Z,0.00
2022-11-16T01:28:11.613Z,0.00
2022-11-16T01:29:10.540Z,0.00
2022-11-16T01:30:10.333Z,0.00
2022-11-16T01:31:10.304Z,0.00
2022-11-16T01:32:10.325Z,0.00
2022-11-16T01:33:13.014Z,0.00
2022-11-16T01:34:10.279Z,0.00
2022-11-16T01:35:10.262Z,0.00
2022-11-16T01:36:13.034Z,0.00
2022-11-16T01:37:10.237Z,0.00
2022-11-16T01:38:10.254Z,0.00
2022-11-16T01:39:11.510Z,0.00
2022-11-16T01:40:10.202Z,0.00
2022-11-16T01:41:11.028Z,0.00
2022-11-16T01:42:10.178Z,0.00
2022-11-16T01:43:10.203Z,0.00
2022-11-16T01:44:10.166Z,0.00
2022-11-16T01:45:10.171Z,0.00
2022-11-16T01:46:10.137Z,0.00
2022-11-16T01:47:10.144Z,0.00
2022-11-16T01:48:10.136Z,0.00
2022-11-16T01:49:10.142Z,0.00
2022-11-16T01:50:10.093Z,0.00
2022-11-16T01:51:10.091Z,0.00
2022-11-16T01:52:10.139Z,0.00
2022-11-16T01:53:11.011Z,0.00
2022-11-16T01:54:10.057Z,0.00
2022-11-16T01:55:10.069Z,0.00
2022-11-16T01:56:10.027Z,0.00
2022-11-16T01:57:11.075Z,0.00
2022-11-16T01:58:10.010Z,0.00
2022-11-16T01:59:10.002Z,0.00
2022-11-16T02:00:09.994Z,0.00
2022-11-16T02:01:10.063Z,0.00
2022-11-16T02:02:09.990Z,0.00
2022-11-16T02:03:09.958Z,0.00
2022-11-16T02:04:09.956Z,0.00
2022-11-16T02:05:09.931Z,0.00
2022-11-16T02:06:09.963Z,0.00
2022-11-16T02:07:09.972Z,0.00
2022-11-16T02:08:09.919Z,0.00
2022-11-16T02:09:12.514Z,0.00
2022-11-16T02:10:12.503Z,0.00
2022-11-16T02:11:09.866Z,0.00
2022-11-16T02:12:09.890Z,0.00
2022-11-16T02:13:09.875Z,0.00
2022-11-16T02:14:09.839Z,0.00
2022-11-16T02:15:09.824Z,0.00
2022-11-16T02:16:09.826Z,0.00
2022-11-16T02:17:09.804Z,0.00
2022-11-16T02:18:09.812Z,0.00
2022-11-16T02:19:09.795Z,0.00
2022-11-16T02:20:09.773Z,0.00
2022-11-16T02:21:09.759Z,0.00
2022-11-16T02:22:09.767Z,0.00
2022-11-16T02:23:09.741Z,0.00
2022-11-16T02:24:09.746Z,0.00
2022-11-16T02:25:09.719Z,0.00
2022-11-16T02:26:09.699Z,0.00
2022-11-16T02:27:09.722Z,0.00
2022-11-16T02:28:09.678Z,0.00
2022-11-16T02:29:09.696Z,0.00
2022-11-16T02:30:09.655Z,0.00
2022-11-16T02:31:09.656Z,0.00
2022-11-16T02:32:09.630Z,0.00
2022-11-16T02:33:09.655Z,0.00
2022-11-16T02:34:09.613Z,0.00
2022-11-16T02:35:09.606Z,0.00
2022-11-16T02:36:09.592Z,0.00
2022-11-16T02:37:10.632Z,0.00
2022-11-16T02:38:16.507Z,0.00
2022-11-16T02:39:10.050Z,0.00
2022-11-16T02:40:12.527Z,0.00
2022-11-16T02:41:12.523Z,0.00
2022-11-16T02:42:09.535Z,0.00
2022-11-16T02:43:09.521Z,0.00
2022-11-16T02:44:09.507Z,0.00
2022-11-16T02:45:09.519Z,0.00
2022-11-16T02:46:09.475Z,0.00
2022-11-16T02:47:09.474Z,0.00
2022-11-16T02:48:09.477Z,0.00
2022-11-16T02:49:09.455Z,0.00
2022-11-16T02:50:09.547Z,0.00
2022-11-16T02:51:09.429Z,0.00
2022-11-16T02:52:09.420Z,0.00
2022-11-16T02:53:09.405Z,0.00
2022-11-16T02:54:09.404Z,0.00
2022-11-16T02:55:09.407Z,0.00
2022-11-16T02:56:09.418Z,0.00
2022-11-16T02:57:09.361Z,0.00
2022-11-16T02:58:10.021Z,0.00
2022-11-16T02:59:09.336Z,0.00
2022-11-16T03:00:09.333Z,0.00
2022-11-16T03:01:09.419Z,0.00
2022-11-16T03:02:09.332Z,0.00
2022-11-16T03:03:12.019Z,0.00
2022-11-16T03:04:09.286Z,0.00
2022-11-16T03:05:09.275Z,0.00
2022-11-16T03:06:09.281Z,0.00
2022-11-16T03:07:09.320Z,0.00
2022-11-16T03:08:10.012Z,0.00
2022-11-16T03:09:09.258Z,0.00
2022-11-16T03:10:09.221Z,0.00
2022-11-16T03:11:09.211Z,0.00
2022-11-16T03:12:09.217Z,0.00
2022-11-16T03:13:09.214Z,0.00
2022-11-16T03:14:09.197Z,0.00
2022-11-16T03:15:09.171Z,0.00
2022-11-16T03:16:09.146Z,0.00
2022-11-16T03:17:09.149Z,0.00
2022-11-16T03:18:10.014Z,0.00
2022-11-16T03:19:09.145Z,0.00
2022-11-16T03:20:09.119Z,0.00
2022-11-16T03:21:09.148Z,0.00
2022-11-16T03:22:09.095Z,0.00
2022-11-16T03:23:09.074Z,0.00
2022-11-16T03:24:10.021Z,0.00
2022-11-16T03:25:11.039Z,0.00
2022-11-16T03:26:09.043Z,0.00
2022-11-16T03:27:09.035Z,0.00
2022-11-16T03:28:09.051Z,0.00
2022-11-16T03:29:09.046Z,0.00
2022-11-16T03:30:08.998Z,0.00
2022-11-16T03:31:09.513Z,0.00
2022-11-16T03:32:08.999Z,0.00
2022-11-16T03:33:08.963Z,0.00
2022-11-16T03:34:08.988Z,0.00
2022-11-16T03:35:08.942Z,0.00
2022-11-16T03:36:08.940Z,0.00
2022-11-16T03:37:08.943Z,0.00
2022-11-16T03:38:08.926Z,0.00
2022-11-16T03:39:08.900Z,0.00
2022-11-16T03:40:08.892Z,0.00
2022-11-16T03:41:08.897Z,0.00
2022-11-16T03:42:08.871Z,0.00
2022-11-16T03:43:08.863Z,0.00
2022-11-16T03:44:08.868Z,0.00
2022-11-16T03:45:08.835Z,0.00
2022-11-16T03:46:08.852Z,0.00
2022-11-16T03:47:08.826Z,0.00
2022-11-16T03:48:09.528Z,0.00
2022-11-16T03:49:08.795Z,0.00
2022-11-16T03:50:11.521Z,0.00
2022-11-16T03:51:08.773Z,0.00
2022-11-16T03:52:08.783Z,0.00
2022-11-16T03:53:08.752Z,0.00
2022-11-16T03:54:08.772Z,0.00
2022-11-16T03:55:08.763Z,0.00
2022-11-16T03:56:08.713Z,0.00
2022-11-16T03:57:08.726Z,0.00
2022-11-16T03:58:08.693Z,0.00
2022-11-16T03:59:09.728Z,0.00
2022-11-16T04:00:09.537Z,0.00
2022-11-16T04:01:08.735Z,0.00
2022-11-16T04:02:08.654Z,0.00
2022-11-16T04:03:10.743Z,0.00
2022-11-16T04:04:08.649Z,0.00
2022-11-16T04:05:09.521Z,0.00
2022-11-16T04:06:11.511Z,0.00
2022-11-16T04:07:08.643Z,0.00
2022-11-16T04:08:09.514Z,0.00
2022-11-16T04:09:08.596Z,0.00
2022-11-16T04:10:10.552Z,0.00
2022-11-16T04:11:08.555Z,0.00
2022-11-16T04:12:08.545Z,0.00
2022-11-16T04:13:08.534Z,0.00
2022-11-16T04:14:09.401Z,0.00
2022-11-16T04:15:08.527Z,0.00
2022-11-16T04:16:08.514Z,0.00
2022-11-16T04:17:08.495Z,0.00
2022-11-16T04:18:08.477Z,0.00
2022-11-16T04:19:08.560Z,0.00
2022-11-16T04:20:08.456Z,0.00
2022-11-16T04:21:08.444Z,0.00
2022-11-16T04:22:08.437Z,0.00
2022-11-16T04:23:08.413Z,0.00
2022-11-16T04:24:08.413Z,0.00
2022-11-16T04:25:08.418Z,0.00
2022-11-16T04:26:08.419Z,0.00
2022-11-16T04:27:08.373Z,0.00
2022-11-16T04:28:08.367Z,0.00
2022-11-16T04:29:08.369Z,0.00
2022-11-16T04:30:08.353Z,0.00
2022-11-16T04:31:08.330Z,0.00
2022-11-16T04:32:08.383Z,0.00
2022-11-16T04:33:08.310Z,0.00
2022-11-16T04:34:08.307Z,0.00
2022-11-16T04:35:08.299Z,0.00
2022-11-16T04:36:08.308Z,0.00
2022-11-16T04:37:08.291Z,0.00
2022-11-16T04:38:08.264Z,0.00
2022-11-16T04:39:08.245Z,0.00
2022-11-16T04:40:08.237Z,0.00
2022-11-16T04:41:08.225Z,0.00
2022-11-16T04:42:08.228Z,0.00
2022-11-16T04:43:09.012Z,0.00
2022-11-16T04:44:08.202Z,0.00
2022-11-16T04:45:08.167Z,0.00
2022-11-16T04:46:08.166Z,0.00
2022-11-16T04:47:08.209Z,0.00
2022-11-16T04:48:08.176Z,0.00
2022-11-16T04:49:08.131Z,0.00
2022-11-16T04:50:08.127Z,0.00
2022-11-16T04:51:08.108Z,0.00
2022-11-16T04:52:08.108Z,0.00
2022-11-16T04:53:08.109Z,0.00
2022-11-16T04:54:08.084Z,0.00
2022-11-16T04:55:08.069Z,0.00
2022-11-16T04:56:08.063Z,0.00
2022-11-16T04:57:08.045Z,0.00
2022-11-16T04:58:08.087Z,0.00
2022-11-16T04:59:08.050Z,0.00
2022-11-16T05:00:08.035Z,0.00
2022-11-16T05:01:08.048Z,0.00
2022-11-16T05:02:07.995Z,0.00
2022-11-16T05:03:07.979Z,0.00
2022-11-16T05:04:08.015Z,0.00
2022-11-16T05:05:07.980Z,0.00
2022-11-16T05:06:07.945Z,0.00
2022-11-16T05:07:07.956Z,0.00
2022-11-16T05:08:09.242Z,0.00
2022-11-16T05:09:07.944Z,0.00
2022-11-16T05:10:07.917Z,0.00
2022-11-16T05:11:07.902Z,0.00
2022-11-16T05:12:07.884Z,0.00
2022-11-16T05:13:07.880Z,0.00
2022-11-16T05:14:07.864Z,0.00
2022-11-16T05:15:08.057Z,0.00
2022-11-16T05:16:07.837Z,0.00
2022-11-16T05:17:07.838Z,0.00
2022-11-16T05:18:07.817Z,0.00
2022-11-16T05:19:07.808Z,0.00
2022-11-16T05:20:07.840Z,0.00
2022-11-16T05:21:07.795Z,0.00
2022-11-16T05:22:07.766Z,0.00
2022-11-16T05:23:08.772Z,0.00
2022-11-16T05:24:07.770Z,0.00
2022-11-16T05:25:07.768Z,0.00
2022-11-16T05:26:07.728Z,0.00
2022-11-16T05:27:07.719Z,0.00
2022-11-16T05:28:07.722Z,0.00
2022-11-16T05:29:07.702Z,0.00
2022-11-16T05:30:07.697Z,0.00
2022-11-16T05:31:07.711Z,0.00
2022-11-16T05:32:07.673Z,0.00
2022-11-16T05:33:07.661Z,0.00
2022-11-16T05:34:07.645Z,0.00
2022-11-16T05:35:07.634Z,0.00
2022-11-16T05:36:07.663Z,0.00
2022-11-16T05:37:07.609Z,0.00
2022-11-16T05:38:07.604Z,0.00
2022-11-16T05:39:07.599Z,0.00
2022-11-16T05:40:07.585Z,0.00
2022-11-16T05:41:07.566Z,0.00
2022-11-16T05:42:07.578Z,0.00
2022-11-16T05:43:07.568Z,0.00
2022-11-16T05:44:07.533Z,0.00
2022-11-16T05:45:07.519Z,0.00
2022-11-16T05:46:07.527Z,0.00
2022-11-16T05:47:07.500Z,0.00
2022-11-16T05:48:07.528Z,0.00
2022-11-16T05:49:07.481Z,0.00
2022-11-16T05:50:07.480Z,0.00
2022-11-16T05:51:07.455Z,0.00
2022-11-16T05:52:07.467Z,0.00
2022-11-16T05:53:07.454Z,0.00
2022-11-16T05:54:08.038Z,0.00
2022-11-16T05:55:07.441Z,0.00
2022-11-16T05:56:10.098Z,0.00
2022-11-16T05:57:07.403Z,0.00
2022-11-16T05:58:07.385Z,0.00
2022-11-16T05:59:10.073Z,0.00
2022-11-16T06:00:08.381Z,0.00
2022-11-16T06:01:14.028Z,0.00
2022-11-16T06:02:07.336Z,0.00
2022-11-16T06:03:07.388Z,0.00
2022-11-16T06:04:07.341Z,0.00
2022-11-16T06:05:07.337Z,0.00
2022-11-16T06:06:07.290Z,0.00
2022-11-16T06:07:07.333Z,0.00
2022-11-16T06:08:07.310Z,0.00
2022-11-16T06:09:07.265Z,0.00
2022-11-16T06:10:07.276Z,0.00
2022-11-16T06:11:07.277Z,0.00
2022-11-16T06:12:10.024Z,0.00
2022-11-16T06:13:08.030Z,0.00
2022-11-16T06:14:07.215Z,0.00
2022-11-16T06:15:07.220Z,0.00
2022-11-16T06:16:07.458Z,0.00
2022-11-16T06:17:10.032Z,0.00
2022-11-16T06:18:07.170Z,0.00
2022-11-16T06:19:07.175Z,0.00
2022-11-16T06:20:07.170Z,0.00
2022-11-16T06:21:08.033Z,0.00
2022-11-16T06:22:07.145Z,0.00
2022-11-16T06:23:07.120Z,0.00
2022-11-16T06:24:07.098Z,0.00
2022-11-16T06:25:07.086Z,0.00
2022-11-16T06:26:07.075Z,0.00
2022-11-16T06:27:08.033Z,0.00
2022-11-16T06:28:08.302Z,0.00
2022-11-16T06:29:08.087Z,0.00
2022-11-16T06:30:09.536Z,0.00
2022-11-16T06:31:09.532Z,0.00
2022-11-16T06:32:07.154Z,0.00
2022-11-16T06:33:07.007Z,0.00
2022-11-16T06:34:07.001Z,0.00
2022-11-16T06:35:06.975Z,0.00
2022-11-16T06:36:07.980Z,0.00
2022-11-16T06:37:07.066Z,0.00
2022-11-16T06:38:09.544Z,0.00
2022-11-16T06:39:06.956Z,0.00
2022-11-16T06:40:06.928Z,0.00
2022-11-16T06:41:06.905Z,0.00
2022-11-16T06:42:07.534Z,0.00
2022-11-16T06:43:06.910Z,0.00
2022-11-16T06:44:07.548Z,0.00
2022-11-16T06:45:06.894Z,0.00
2022-11-16T06:46:06.860Z,0.00
2022-11-16T06:47:06.870Z,0.00
2022-11-16T06:48:09.760Z,0.00
2022-11-16T06:49:06.823Z,0.00
2022-11-16T06:50:08.566Z,0.00
2022-11-16T06:51:06.796Z,0.00
2022-11-16T06:52:13.542Z,0.00
2022-11-16T06:53:06.800Z,0.00
2022-11-16T06:54:06.767Z,0.00
2022-11-16T06:55:06.755Z,0.00
2022-11-16T06:56:06.750Z,0.00
2022-11-16T06:57:06.764Z,0.00
2022-11-16T06:58:07.541Z,0.00
2022-11-16T06:59:09.541Z,0.00
2022-11-16T07:00:06.720Z,0.00
2022-11-16T07:01:06.708Z,0.00
2022-11-16T07:02:07.601Z,0.00
2022-11-16T07:03:06.678Z,0.00
2022-11-16T07:04:06.687Z,0.00
2022-11-16T07:05:06.673Z,0.00
2022-11-16T07:06:07.542Z,0.00
2022-11-16T07:07:07.566Z,0.00
2022-11-16T07:08:06.613Z,0.00
2022-11-16T07:09:06.612Z,0.00
2022-11-16T07:10:06.590Z,0.00
2022-11-16T07:11:06.612Z,0.00
2022-11-16T07:12:06.603Z,0.00
2022-11-16T07:13:06.558Z,0.00
2022-11-16T07:14:09.533Z,0.00
2022-11-16T07:15:06.588Z,0.00
2022-11-16T07:16:06.534Z,0.00
2022-11-16T07:17:09.482Z,0.00
2022-11-16T07:18:06.530Z,0.00
2022-11-16T07:19:07.040Z,0.00
2022-11-16T07:20:06.505Z,0.00
2022-11-16T07:21:06.479Z,0.00
2022-11-16T07:22:06.494Z,0.00
2022-11-16T07:23:11.360Z,0.00
2022-11-16T07:24:10.037Z,0.00
2022-11-16T07:25:06.434Z,0.00
2022-11-16T07:26:06.424Z,0.00
2022-11-16T07:27:06.436Z,0.00
2022-11-16T07:28:06.570Z,5.62
2022-11-16T07:29:07.045Z,5.62
2022-11-16T07:30:06.562Z,5.62
2022-11-16T07:31:06.372Z,5.62
2022-11-16T07:32:07.041Z,5.62
2022-11-16T07:33:07.372Z,5.62
2022-11-16T07:34:06.357Z,5.62
2022-11-16T07:35:09.319Z,11.25
2022-11-16T07:36:06.332Z,11.25
2022-11-16T07:37:07.047Z,11.25
2022-11-16T07:38:16.845Z,11.25
2022-11-16T07:39:14.045Z,16.88
2022-11-16T07:40:07.027Z,16.88
2022-11-16T07:41:21.037Z,16.88
2022-11-16T07:42:06.575Z,16.88
2022-11-16T07:43:07.034Z,22.50
2022-11-16T07:44:10.868Z,22.50
2022-11-16T07:45:10.042Z,22.50
2022-11-16T07:46:44.509Z,22.50
2022-11-16T07:47:07.186Z,28.12
2022-11-16T07:48:06.183Z,28.12
2022-11-16T07:49:11.156Z,22.50
2022-11-16T07:50:09.039Z,22.50
2022-11-16T07:51:06.275Z,22.50
2022-11-16T07:52:06.193Z,16.88
2022-11-16T07:53:06.132Z,16.88
2022-11-16T07:54:06.116Z,16.88
2022-11-16T07:55:09.038Z,16.88
2022-11-16T07:56:06.095Z,16.88
2022-11-16T07:57:06.090Z,16.88
2022-11-16T07:58:06.101Z,16.88
2022-11-16T07:59:06.065Z,22.50
2022-11-16T08:00:06.052Z,22.50
2022-11-16T08:01:06.100Z,22.50
2022-11-16T08:02:06.064Z,16.88
2022-11-16T08:03:06.027Z,11.25
2022-11-16T08:04:06.024Z,11.25
2022-11-16T08:05:05.997Z,5.62
2022-11-16T08:06:06.549Z,5.62
2022-11-16T08:07:06.736Z,5.62
2022-11-16T08:08:06.548Z,11.25
2022-11-16T08:09:05.948Z,5.62
2022-11-16T08:10:06.045Z,5.62
2022-11-16T08:11:05.928Z,5.62
2022-11-16T08:12:06.577Z,5.62
2022-11-16T08:13:12.537Z,5.62
2022-11-16T08:14:05.910Z,11.25
2022-11-16T08:15:05.905Z,11.25
2022-11-16T08:16:05.880Z,16.88
2022-11-16T08:17:05.864Z,22.50
2022-11-16T08:18:05.865Z,28.12
2022-11-16T08:19:06.535Z,33.75
2022-11-16T08:20:06.094Z,45.00
2022-11-16T08:21:05.823Z,50.62
2022-11-16T08:22:05.807Z,56.25
2022-11-16T08:23:06.745Z,56.25
2022-11-16T08:24:07.846Z,56.25
2022-11-16T08:25:06.535Z,56.25
2022-11-16T08:26:06.070Z,56.25
2022-11-16T08:27:05.777Z,50.62
2022-11-16T08:28:06.538Z,45.00
2022-11-16T08:29:05.736Z,39.38
2022-11-16T08:30:05.724Z,45.00
2022-11-16T08:31:05.725Z,45.00
2022-11-16T08:32:05.720Z,39.38
2022-11-16T08:33:08.545Z,45.00
2022-11-16T08:34:05.677Z,39.38
2022-11-16T08:35:08.540Z,39.38
2022-11-16T08:36:10.961Z,39.38
2022-11-16T08:37:06.678Z,39.38
2022-11-16T08:38:05.625Z,39.38
2022-11-16T08:39:05.745Z,39.38
2022-11-16T08:40:05.629Z,33.75
2022-11-16T08:41:05.602Z,33.75
2022-11-16T08:42:05.587Z,39.38
2022-11-16T08:43:07.577Z,39.38
2022-11-16T08:44:05.595Z,39.38
2022-11-16T08:45:06.545Z,39.38
2022-11-16T08:46:05.583Z,45.00
2022-11-16T08:47:05.539Z,45.00
2022-11-16T08:48:05.548Z,50.62
2022-11-16T08:49:06.048Z,50.62
2022-11-16T08:50:05.501Z,50.62
2022-11-16T08:51:21.350Z,56.25
2022-11-16T08:52:06.500Z,56.25
2022-11-16T08:53:08.057Z,61.88
2022-11-16T08:54:05.456Z,61.88
2022-11-16T08:55:05.492Z,61.88
2022-11-16T08:56:05.459Z,61.88
2022-11-16T08:57:20.034Z,61.88
2022-11-16T08:58:08.054Z,61.88
2022-11-16T08:59:06.052Z,61.88
2022-11-16T09:00:06.036Z,61.88
2022-11-16T09:01:05.582Z,56.25
2022-11-16T09:02:05.426Z,56.25
2022-11-16T09:03:08.036Z,56.25
2022-11-16T09:04:05.351Z,56.25
2022-11-16T09:05:05.367Z,50.62
2022-11-16T09:06:05.319Z,56.25
2022-11-16T09:07:06.086Z,50.62
2022-11-16T09:08:05.308Z,56.25
2022-11-16T09:09:06.044Z,50.62
2022-11-16T09:10:05.316Z,50.62
2022-11-16T09:11:05.386Z,56.25
2022-11-16T09:12:05.291Z,61.88
2022-11-16T09:13:06.044Z,67.50
2022-11-16T09:14:06.046Z,67.50
2022-11-16T09:15:26.245Z,67.50
2022-11-16T09:16:05.251Z,67.50
2022-11-16T09:17:08.042Z,67.50
2022-11-16T09:18:05.199Z,67.50
2022-11-16T09:19:05.179Z,73.12
2022-11-16T09:20:07.079Z,73.12
2022-11-16T09:21:06.039Z,73.12
2022-11-16T09:22:05.155Z,73.12
2022-11-16T09:23:05.156Z,84.38
2022-11-16T09:24:05.133Z,101.25
2022-11-16T09:25:08.036Z,101.25
2022-11-16T09:26:05.101Z,101.25
2022-11-16T09:27:06.155Z,95.62
2022-11-16T09:28:05.123Z,118.12
2022-11-16T09:29:08.045Z,118.12
2022-11-16T09:30:05.148Z,118.12
2022-11-16T09:31:05.049Z,118.12
2022-11-16T09:32:05.046Z,123.75
2022-11-16T09:33:05.027Z,123.75
2022-11-16T09:34:05.048Z,123.75
2022-11-16T09:35:05.006Z,123.75
2022-11-16T09:36:05.006Z,123.75
2022-11-16T09:37:04.993Z,123.75
2022-11-16T09:38:04.979Z,123.75
2022-11-16T09:40:05.966Z,123.75
2022-11-16T09:41:05.561Z,123.75
2022-11-16T09:42:05.541Z,118.12
2022-11-16T09:43:04.936Z,112.50
2022-11-16T09:44:07.597Z,112.50
2022-11-16T09:45:05.145Z,106.88
2022-11-16T09:46:04.888Z,101.25
2022-11-16T09:47:04.886Z,101.25
2022-11-16T09:48:05.563Z,95.62
2022-11-16T09:49:06.094Z,90.00
2022-11-16T09:50:06.079Z,90.00
2022-11-16T09:51:04.834Z,84.38
2022-11-16T09:52:11.555Z,84.38
2022-11-16T09:53:04.820Z,84.38
2022-11-16T09:54:04.811Z,78.75
2022-11-16T09:55:05.099Z,73.12
2022-11-16T09:56:05.543Z,78.75
2022-11-16T09:57:10.985Z,78.75
2022-11-16T09:58:05.859Z,78.75
2022-11-16T09:59:05.669Z,67.50
2022-11-16T10:00:04.756Z,73.12
2022-11-16T10:01:04.874Z,73.12
2022-11-16T10:02:04.717Z,73.12
2022-11-16T10:03:04.702Z,78.75
2022-11-16T10:04:04.686Z,73.12
2022-11-16T10:05:04.698Z,73.12
2022-11-16T10:06:04.684Z,73.12
2022-11-16T10:07:04.745Z,73.12
2022-11-16T10:08:05.680Z,73.12
2022-11-16T10:09:05.567Z,73.12
2022-11-16T10:10:04.626Z,73.12
2022-11-16T10:11:04.610Z,73.12
2022-11-16T10:12:04.642Z,67.50
2022-11-16T10:13:07.556Z,61.88
2022-11-16T10:14:04.685Z,73.12
2022-11-16T10:15:04.701Z,73.12
2022-11-16T10:16:04.557Z,78.75
2022-11-16T10:17:04.581Z,73.12
2022-11-16T10:18:04.543Z,67.50
2022-11-16T10:19:04.514Z,67.50
2022-11-16T10:20:04.575Z,67.50
2022-11-16T10:21:05.041Z,73.12
2022-11-16T10:22:04.495Z,73.12
2022-11-16T10:23:04.502Z,78.75
2022-11-16T10:24:05.053Z,84.38
2022-11-16T10:25:25.468Z,90.00
2022-11-16T10:26:06.504Z,90.00
2022-11-16T10:27:07.071Z,90.00
2022-11-16T10:28:04.451Z,90.00
2022-11-16T10:29:04.444Z,90.00
2022-11-16T10:30:04.423Z,95.62
2022-11-16T10:31:04.406Z,95.62
2022-11-16T10:32:04.393Z,118.12
2022-11-16T10:33:09.687Z,112.50
2022-11-16T10:34:05.383Z,106.88
2022-11-16T10:35:04.364Z,112.50
2022-11-16T10:36:05.043Z,118.12
2022-11-16T10:37:04.328Z,112.50
2022-11-16T10:38:04.324Z,106.88
2022-11-16T10:39:07.055Z,112.50
2022-11-16T10:40:04.605Z,112.50
2022-11-16T10:41:04.286Z,112.50
2022-11-16T10:42:07.588Z,95.62
2022-11-16T10:43:04.258Z,90.00
2022-11-16T10:44:04.281Z,84.38
2022-11-16T10:45:04.271Z,78.75
2022-11-16T10:46:04.236Z,78.75
2022-11-16T10:47:04.335Z,73.12
2022-11-16T10:48:19.045Z,73.12
2022-11-16T10:49:04.198Z,73.12
2022-11-16T10:50:05.087Z,95.62
2022-11-16T10:51:05.067Z,106.88
2022-11-16T10:52:04.161Z,112.50
2022-11-16T10:53:04.153Z,106.88
2022-11-16T10:54:11.060Z,106.88
2022-11-16T10:55:07.050Z,106.88
2022-11-16T10:56:04.146Z,101.25
2022-11-16T10:57:04.100Z,90.00
2022-11-16T10:58:04.102Z,78.75
2022-11-16T10:59:04.097Z,84.38
2022-11-16T11:00:09.862Z,106.88
2022-11-16T11:01:05.132Z,101.25
2022-11-16T11:02:04.065Z,106.88
2022-11-16T11:03:06.667Z,90.00
2022-11-16T11:04:06.557Z,90.00
2022-11-16T11:05:04.020Z,129.38
2022-11-16T11:06:04.020Z,135.00
2022-11-16T11:07:04.140Z,95.62
2022-11-16T11:08:03.988Z,106.88
2022-11-16T11:09:03.996Z,129.38
2022-11-16T11:10:04.563Z,101.25
2022-11-16T11:11:04.088Z,140.62
2022-11-16T11:12:03.976Z,140.62
2022-11-16T11:13:06.559Z,135.00
2022-11-16T11:14:06.557Z,84.38
2022-11-16T11:15:03.933Z,84.38
2022-11-16T11:16:03.903Z,84.38
2022-11-16T11:17:03.922Z,84.38
2022-11-16T11:18:03.913Z,90.00
2022-11-16T11:19:04.687Z,90.00
2022-11-16T11:20:03.857Z,140.62
2022-11-16T11:21:03.873Z,129.38
2022-11-16T11:22:03.842Z,140.62
2022-11-16T11:23:04.092Z,146.25
2022-11-16T11:24:37.445Z,135.00
2022-11-16T11:25:04.793Z,146.25
2022-11-16T11:26:03.797Z,106.88
2022-11-16T11:27:06.569Z,140.62
2022-11-16T11:28:04.116Z,140.62
2022-11-16T11:29:03.759Z,140.62
2022-11-16T11:30:03.763Z,140.62
2022-11-16T11:31:03.739Z,140.62
2022-11-16T11:32:03.733Z,140.62
2022-11-16T11:33:03.722Z,140.62
2022-11-16T11:34:05.586Z,135.00
2022-11-16T11:35:03.811Z,135.00
2022-11-16T11:36:03.720Z,135.00
2022-11-16T11:37:03.665Z,140.62
2022-11-16T11:38:07.943Z,146.25
2022-11-16T11:39:03.765Z,146.25
2022-11-16T11:40:04.093Z,140.62
2022-11-16T11:41:04.554Z,140.62
2022-11-16T11:42:03.627Z,140.62
2022-11-16T11:43:06.557Z,140.62
2022-11-16T11:44:03.609Z,135.00
2022-11-16T11:45:03.604Z,135.00
2022-11-16T11:46:03.583Z,135.00
2022-11-16T11:47:55.745Z,135.00
2022-11-16T11:48:04.567Z,135.00
2022-11-16T11:49:03.551Z,135.00
2022-11-16T11:50:03.526Z,135.00
2022-11-16T11:51:03.575Z,135.00
2022-11-16T11:52:03.553Z,135.00
2022-11-16T11:53:03.493Z,129.38
2022-11-16T11:54:03.485Z,129.38
2022-11-16T11:55:03.478Z,129.38
2022-11-16T11:56:04.061Z,129.38
2022-11-16T11:57:03.485Z,129.38
2022-11-16T11:58:03.441Z,129.38
2022-11-16T11:59:03.428Z,123.75
2022-11-16T12:00:03.428Z,118.12
2022-11-16T12:01:03.437Z,112.50
2022-11-16T12:02:04.442Z,112.50
2022-11-16T12:03:03.674Z,56.25
2022-11-16T12:04:03.386Z,56.25
2022-11-16T12:05:03.364Z,56.25
2022-11-16T12:06:04.061Z,61.88
2022-11-16T12:07:03.603Z,73.12
2022-11-16T12:08:04.071Z,146.25
2022-11-16T12:09:04.061Z,146.25
2022-11-16T12:10:03.302Z,151.88
2022-11-16T12:11:03.311Z,151.88
2022-11-16T12:12:03.286Z,151.88
2022-11-16T12:13:03.294Z,151.88
2022-11-16T12:14:03.598Z,151.88
2022-11-16T12:15:03.267Z,146.25
2022-11-16T12:16:03.241Z,146.25
2022-11-16T12:17:03.224Z,151.88
2022-11-16T12:18:03.237Z,67.50
2022-11-16T12:19:03.199Z,146.25
2022-11-16T12:20:03.197Z,135.00
2022-11-16T12:21:03.178Z,73.12
2022-11-16T12:22:03.165Z,151.88
2022-11-16T12:23:04.395Z,146.25
2022-11-16T12:24:03.174Z,151.88
2022-11-16T12:25:04.064Z,146.25
2022-11-16T12:26:03.127Z,151.88
2022-11-16T12:27:03.107Z,118.12
2022-11-16T12:28:03.101Z,146.25
2022-11-16T12:29:03.142Z,168.75
2022-11-16T12:30:03.074Z,168.75
2022-11-16T12:31:03.090Z,168.75
2022-11-16T12:32:03.094Z,174.38
2022-11-16T12:33:03.055Z,180.00
2022-11-16T12:34:03.049Z,168.75
2022-11-16T12:35:03.029Z,185.62
2022-11-16T12:36:03.017Z,185.62
2022-11-16T12:37:03.001Z,185.62
2022-11-16T12:38:02.991Z,191.25
2022-11-16T12:39:03.002Z,185.62
2022-11-16T12:40:02.987Z,180.00
2022-11-16T12:41:02.955Z,180.00
2022-11-16T12:42:02.944Z,185.62
2022-11-16T12:43:02.967Z,196.88
2022-11-16T12:44:02.938Z,191.25
2022-11-16T12:45:02.914Z,191.25
2022-11-16T12:46:02.906Z,196.88
2022-11-16T12:47:02.887Z,191.25
2022-11-16T12:48:03.090Z,191.25
2022-11-16T12:49:02.878Z,191.25
2022-11-16T12:50:02.892Z,196.88
2022-11-16T12:51:02.845Z,191.25
2022-11-16T12:52:03.577Z,196.88
2022-11-16T12:53:03.855Z,191.25
2022-11-16T12:54:03.568Z,185.62
2022-11-16T12:55:30.782Z,185.62
2022-11-16T12:56:03.815Z,191.25
2022-11-16T12:57:02.789Z,191.25
2022-11-16T12:58:03.564Z,140.62
2022-11-16T12:59:02.768Z,180.00
2022-11-16T13:00:02.753Z,168.75
2022-11-16T13:01:02.929Z,180.00
2022-11-16T13:02:02.734Z,191.25
2022-11-16T13:03:02.721Z,185.62